sensor_id;sensor_type;location;lat;lon;timestamp;temperature;humidity
35962;DHT22;22044;48.298;10.008;2022-09-20T00:01:16;8.40;99.90
35962;DHT22;22044;48.298;10.008;2022-09-20T00:03:44;8.40;99.90
35962;DHT22;22044;48.298;10.008;2022-09-20T00:06:14;8.30;99.90
35962;DHT22;22044;48.298;10.008;2022-09-20T00:08:43;8.30;99.90
35962;DHT22;22044;48.298;10.008;2022-09-20T00:11:12;8.30;99.90
35962;DHT22;22044;48.298;10.008;2022-09-20T00:13:41;8.30;99.90
35962;DHT22;22044;48.298;10.008;2022-09-20T00:16:13;8.30;99.90
35962;DHT22;22044;48.298;10.008;2022-09-20T00:18:40;8.20;99.90
35962;DHT22;22044;48.298;10.008;2022-09-20T00:21:13;8.20;99.90
35962;DHT22;22044;48.298;10.008;2022-09-20T00:23:41;8.10;99.90
35962;DHT22;22044;48.298;10.008;2022-09-20T00:26:08;7.90;99.90
35962;DHT22;22044;48.298;10.008;2022-09-20T00:28:35;7.80;99.90
35962;DHT22;22044;48.298;10.008;2022-09-20T00:31:02;7.60;99.90
35962;DHT22;22044;48.298;10.008;2022-09-20T00:33:31;7.40;99.90
35962;DHT22;22044;48.298;10.008;2022-09-20T00:36:12;7.20;99.90
35962;DHT22;22044;48.298;10.008;2022-09-20T00:38:39;7.00;99.90
35962;DHT22;22044;48.298;10.008;2022-09-20T00:41:06;6.90;99.90
35962;DHT22;22044;48.298;10.008;2022-09-20T00:43:36;6.90;99.90
35962;DHT22;22044;48.298;10.008;2022-09-20T00:46:04;6.90;99.90
35962;DHT22;22044;48.298;10.008;2022-09-20T00:48:33;7.00;99.90
35962;DHT22;22044;48.298;10.008;2022-09-20T00:51:03;7.20;99.90
35962;DHT22;22044;48.298;10.008;2022-09-20T00:53:34;7.20;99.90
35962;DHT22;22044;48.298;10.008;2022-09-20T00:56:05;7.30;99.90
35962;DHT22;22044;48.298;10.008;2022-09-20T00:58:37;7.30;99.90
35962;DHT22;22044;48.298;10.008;2022-09-20T01:01:05;7.20;99.90
35962;DHT22;22044;48.298;10.008;2022-09-20T01:03:35;7.30;99.90
35962;DHT22;22044;48.298;10.008;2022-09-20T01:06:07;7.00;99.90
35962;DHT22;22044;48.298;10.008;2022-09-20T01:08:36;7.10;99.90
35962;DHT22;22044;48.298;10.008;2022-09-20T01:11:04;6.90;99.90
35962;DHT22;22044;48.298;10.008;2022-09-20T01:13:31;6.90;99.90
35962;DHT22;22044;48.298;10.008;2022-09-20T01:16:00;6.90;99.90
35962;DHT22;22044;48.298;10.008;2022-09-20T01:18:28;7.00;99.90
35962;DHT22;22044;48.298;10.008;2022-09-20T01:20:59;7.00;99.90
35962;DHT22;22044;48.298;10.008;2022-09-20T01:23:37;7.10;99.90
35962;DHT22;22044;48.298;10.008;2022-09-20T01:26:28;7.20;99.90
35962;DHT22;22044;48.298;10.008;2022-09-20T01:29:09;7.20;99.90
35962;DHT22;22044;48.298;10.008;2022-09-20T01:31:45;7.20;99.90
35962;DHT22;22044;48.298;10.008;2022-09-20T01:34:14;7.30;99.90
35962;DHT22;22044;48.298;10.008;2022-09-20T01:36:49;7.40;99.90
35962;DHT22;22044;48.298;10.008;2022-09-20T01:39:23;7.40;99.90
35962;DHT22;22044;48.298;10.008;2022-09-20T01:41:57;7.40;99.90
35962;DHT22;22044;48.298;10.008;2022-09-20T01:44:32;7.40;99.90
35962;DHT22;22044;48.298;10.008;2022-09-20T01:47:04;7.50;99.90
35962;DHT22;22044;48.298;10.008;2022-09-20T01:49:44;7.30;99.90
35962;DHT22;22044;48.298;10.008;2022-09-20T01:55:51;7.10;99.90
35962;DHT22;22044;48.298;10.008;2022-09-20T01:58:49;7.20;99.90
35962;DHT22;22044;48.298;10.008;2022-09-20T02:02:00;7.20;99.90
35962;DHT22;22044;48.298;10.008;2022-09-20T02:04:58;7.20;99.90
35962;DHT22;22044;48.298;10.008;2022-09-20T02:08:02;7.20;99.90
35962;DHT22;22044;48.298;10.008;2022-09-20T02:11:00;7.20;99.90
35962;DHT22;22044;48.298;10.008;2022-09-20T02:13:31;7.30;99.90
35962;DHT22;22044;48.298;10.008;2022-09-20T02:16:26;7.30;99.90
35962;DHT22;22044;48.298;10.008;2022-09-20T02:22:22;7.30;99.90
35962;DHT22;22044;48.298;10.008;2022-09-20T02:25:01;7.20;99.90
35962;DHT22;22044;48.298;10.008;2022-09-20T02:27:39;7.20;99.90
35962;DHT22;22044;48.298;10.008;2022-09-20T02:30:14;7.30;99.90
35962;DHT22;22044;48.298;10.008;2022-09-20T02:33:05;7.40;99.90
35962;DHT22;22044;48.298;10.008;2022-09-20T02:35:49;7.40;99.90
35962;DHT22;22044;48.298;10.008;2022-09-20T02:38:29;7.40;99.90
35962;DHT22;22044;48.298;10.008;2022-09-20T02:44:16;7.40;99.90
35962;DHT22;22044;48.298;10.008;2022-09-20T02:46:51;7.40;99.90
35962;DHT22;22044;48.298;10.008;2022-09-20T02:49:25;7.40;99.90
35962;DHT22;22044;48.298;10.008;2022-09-20T02:51:59;7.40;99.90
35962;DHT22;22044;48.298;10.008;2022-09-20T02:54:35;7.40;99.90
35962;DHT22;22044;48.298;10.008;2022-09-20T02:57:13;7.40;99.90
35962;DHT22;22044;48.298;10.008;2022-09-20T02:59:48;7.40;99.90
35962;DHT22;22044;48.298;10.008;2022-09-20T03:02:23;7.40;99.90
35962;DHT22;22044;48.298;10.008;2022-09-20T03:05:09;7.30;99.90
35962;DHT22;22044;48.298;10.008;2022-09-20T03:07:51;7.30;99.90
35962;DHT22;22044;48.298;10.008;2022-09-20T03:10:25;7.40;99.90
35962;DHT22;22044;48.298;10.008;2022-09-20T03:13:09;7.40;99.90
35962;DHT22;22044;48.298;10.008;2022-09-20T03:15:50;7.50;99.90
35962;DHT22;22044;48.298;10.008;2022-09-20T03:18:28;7.50;99.90
35962;DHT22;22044;48.298;10.008;2022-09-20T03:21:06;7.50;99.90
35962;DHT22;22044;48.298;10.008;2022-09-20T03:23:48;7.50;99.90
35962;DHT22;22044;48.298;10.008;2022-09-20T03:26:27;7.50;99.90
35962;DHT22;22044;48.298;10.008;2022-09-20T03:29:02;7.50;99.90
35962;DHT22;22044;48.298;10.008;2022-09-20T03:31:41;7.50;99.90
35962;DHT22;22044;48.298;10.008;2022-09-20T03:34:19;7.60;99.90
35962;DHT22;22044;48.298;10.008;2022-09-20T03:37:02;7.50;99.90
35962;DHT22;22044;48.298;10.008;2022-09-20T03:40:01;7.50;99.90
35962;DHT22;22044;48.298;10.008;2022-09-20T03:42:31;7.50;99.90
35962;DHT22;22044;48.298;10.008;2022-09-20T03:45:33;7.50;99.90
35962;DHT22;22044;48.298;10.008;2022-09-20T03:48:30;7.50;99.90
35962;DHT22;22044;48.298;10.008;2022-09-20T03:51:15;7.50;99.90
35962;DHT22;22044;48.298;10.008;2022-09-20T03:54:25;7.50;99.90
35962;DHT22;22044;48.298;10.008;2022-09-20T03:57:11;7.50;99.90
35962;DHT22;22044;48.298;10.008;2022-09-20T04:00:05;7.50;99.90
35962;DHT22;22044;48.298;10.008;2022-09-20T04:02:49;7.50;99.90
35962;DHT22;22044;48.298;10.008;2022-09-20T04:05:23;7.50;99.90
35962;DHT22;22044;48.298;10.008;2022-09-20T04:08:03;7.50;99.90
35962;DHT22;22044;48.298;10.008;2022-09-20T04:10:37;7.50;99.90
35962;DHT22;22044;48.298;10.008;2022-09-20T04:13:19;7.40;99.90
35962;DHT22;22044;48.298;10.008;2022-09-20T04:16:00;7.40;99.90
35962;DHT22;22044;48.298;10.008;2022-09-20T04:18:35;7.30;99.90
35962;DHT22;22044;48.298;10.008;2022-09-20T04:21:09;7.30;99.90
35962;DHT22;22044;48.298;10.008;2022-09-20T04:23:46;7.40;99.90
35962;DHT22;22044;48.298;10.008;2022-09-20T04:26:19;7.40;99.90
35962;DHT22;22044;48.298;10.008;2022-09-20T04:28:54;7.40;99.90
35962;DHT22;22044;48.298;10.008;2022-09-20T04:31:32;7.50;99.90
35962;DHT22;22044;48.298;10.008;2022-09-20T04:34:03;7.40;99.90
35962;DHT22;22044;48.298;10.008;2022-09-20T04:36:51;7.50;99.90
35962;DHT22;22044;48.298;10.008;2022-09-20T04:39:30;7.40;99.90
35962;DHT22;22044;48.298;10.008;2022-09-20T04:42:29;7.40;99.90
35962;DHT22;22044;48.298;10.008;2022-09-20T04:45:34;7.40;99.90
35962;DHT22;22044;48.298;10.008;2022-09-20T04:48:32;7.40;99.90
35962;DHT22;22044;48.298;10.008;2022-09-20T04:57:35;7.40;99.90
35962;DHT22;22044;48.298;10.008;2022-09-20T05:00:09;7.40;99.90
35962;DHT22;22044;48.298;10.008;2022-09-20T05:03:07;7.40;99.90
35962;DHT22;22044;48.298;10.008;2022-09-20T05:06:06;7.40;99.90
35962;DHT22;22044;48.298;10.008;2022-09-20T05:09:05;7.50;99.90
35962;DHT22;22044;48.298;10.008;2022-09-20T05:12:13;7.50;99.90
35962;DHT22;22044;48.298;10.008;2022-09-20T05:17:50;7.50;99.90
35962;DHT22;22044;48.298;10.008;2022-09-20T05:20:44;7.50;99.90
35962;DHT22;22044;48.298;10.008;2022-09-20T05:23:25;7.50;99.90
35962;DHT22;22044;48.298;10.008;2022-09-20T05:26:08;7.40;99.90
35962;DHT22;22044;48.298;10.008;2022-09-20T05:28:48;7.50;99.90
35962;DHT22;22044;48.298;10.008;2022-09-20T05:31:25;7.50;99.90
35962;DHT22;22044;48.298;10.008;2022-09-20T05:33:58;7.50;99.90
35962;DHT22;22044;48.298;10.008;2022-09-20T05:36:38;7.50;99.90
35962;DHT22;22044;48.298;10.008;2022-09-20T05:39:20;7.50;99.90
35962;DHT22;22044;48.298;10.008;2022-09-20T05:41:56;7.50;99.90
35962;DHT22;22044;48.298;10.008;2022-09-20T05:44:36;7.50;99.90
35962;DHT22;22044;48.298;10.008;2022-09-20T05:47:16;7.60;99.90
35962;DHT22;22044;48.298;10.008;2022-09-20T05:49:52;7.50;99.90
35962;DHT22;22044;48.298;10.008;2022-09-20T05:52:37;7.60;99.90
35962;DHT22;22044;48.298;10.008;2022-09-20T05:55:56;7.60;99.90
35962;DHT22;22044;48.298;10.008;2022-09-20T05:59:01;7.60;99.90
35962;DHT22;22044;48.298;10.008;2022-09-20T06:01:33;7.50;99.90
35962;DHT22;22044;48.298;10.008;2022-09-20T06:04:11;7.50;99.90
35962;DHT22;22044;48.298;10.008;2022-09-20T06:06:50;7.60;99.90
35962;DHT22;22044;48.298;10.008;2022-09-20T06:09:33;7.60;99.90
35962;DHT22;22044;48.298;10.008;2022-09-20T06:12:30;7.60;99.90
35962;DHT22;22044;48.298;10.008;2022-09-20T06:15:09;7.60;99.90
35962;DHT22;22044;48.298;10.008;2022-09-20T06:17:42;7.50;99.90
35962;DHT22;22044;48.298;10.008;2022-09-20T06:20:17;7.50;99.90
35962;DHT22;22044;48.298;10.008;2022-09-20T06:22:52;7.60;99.90
35962;DHT22;22044;48.298;10.008;2022-09-20T06:25:24;7.60;99.90
35962;DHT22;22044;48.298;10.008;2022-09-20T06:27:57;7.60;99.90
35962;DHT22;22044;48.298;10.008;2022-09-20T06:30:28;7.60;99.90
35962;DHT22;22044;48.298;10.008;2022-09-20T06:32:58;7.60;99.90
35962;DHT22;22044;48.298;10.008;2022-09-20T06:35:32;7.60;99.90
35962;DHT22;22044;48.298;10.008;2022-09-20T06:38:13;7.60;99.90
35962;DHT22;22044;48.298;10.008;2022-09-20T06:41:03;7.50;99.90
35962;DHT22;22044;48.298;10.008;2022-09-20T06:43:47;7.60;99.90
35962;DHT22;22044;48.298;10.008;2022-09-20T06:46:15;7.70;99.90
35962;DHT22;22044;48.298;10.008;2022-09-20T06:48:42;7.70;99.90
35962;DHT22;22044;48.298;10.008;2022-09-20T06:51:09;7.70;99.90
35962;DHT22;22044;48.298;10.008;2022-09-20T06:53:39;7.80;99.90
35962;DHT22;22044;48.298;10.008;2022-09-20T06:56:13;7.80;99.90
35962;DHT22;22044;48.298;10.008;2022-09-20T06:58:41;7.80;99.90
35962;DHT22;22044;48.298;10.008;2022-09-20T07:01:08;7.90;99.90
35962;DHT22;22044;48.298;10.008;2022-09-20T07:03:35;8.00;99.90
35962;DHT22;22044;48.298;10.008;2022-09-20T07:06:02;8.00;99.90
35962;DHT22;22044;48.298;10.008;2022-09-20T07:08:29;8.00;99.90
35962;DHT22;22044;48.298;10.008;2022-09-20T07:11:01;8.10;99.90
35962;DHT22;22044;48.298;10.008;2022-09-20T07:13:30;8.10;99.90
35962;DHT22;22044;48.298;10.008;2022-09-20T07:15:59;8.10;99.90
35962;DHT22;22044;48.298;10.008;2022-09-20T07:18:27;8.20;99.90
35962;DHT22;22044;48.298;10.008;2022-09-20T07:20:55;8.20;99.90
35962;DHT22;22044;48.298;10.008;2022-09-20T07:23:23;8.30;99.90
35962;DHT22;22044;48.298;10.008;2022-09-20T07:25:51;8.30;99.90
35962;DHT22;22044;48.298;10.008;2022-09-20T07:28:18;8.30;99.90
35962;DHT22;22044;48.298;10.008;2022-09-20T07:30:47;8.30;99.90
35962;DHT22;22044;48.298;10.008;2022-09-20T07:33:14;8.30;99.90
35962;DHT22;22044;48.298;10.008;2022-09-20T07:35:46;8.30;99.90
35962;DHT22;22044;48.298;10.008;2022-09-20T07:38:14;8.30;99.90
35962;DHT22;22044;48.298;10.008;2022-09-20T07:40:41;8.30;99.90
35962;DHT22;22044;48.298;10.008;2022-09-20T07:43:09;8.30;99.90
35962;DHT22;22044;48.298;10.008;2022-09-20T07:45:36;8.30;99.90
35962;DHT22;22044;48.298;10.008;2022-09-20T07:48:06;8.30;99.90
35962;DHT22;22044;48.298;10.008;2022-09-20T07:50:34;8.40;99.90
35962;DHT22;22044;48.298;10.008;2022-09-20T07:53:02;8.40;99.90
35962;DHT22;22044;48.298;10.008;2022-09-20T07:55:29;8.40;99.90
35962;DHT22;22044;48.298;10.008;2022-09-20T07:57:56;8.50;99.90
35962;DHT22;22044;48.298;10.008;2022-09-20T08:00:24;8.50;99.90
35962;DHT22;22044;48.298;10.008;2022-09-20T08:02:57;8.60;99.90
35962;DHT22;22044;48.298;10.008;2022-09-20T08:05:26;8.60;99.90
35962;DHT22;22044;48.298;10.008;2022-09-20T08:07:54;8.70;99.90
35962;DHT22;22044;48.298;10.008;2022-09-20T08:10:21;8.70;99.90
35962;DHT22;22044;48.298;10.008;2022-09-20T08:12:50;8.70;99.90
35962;DHT22;22044;48.298;10.008;2022-09-20T08:15:17;8.80;99.90
35962;DHT22;22044;48.298;10.008;2022-09-20T08:17:46;8.80;99.90
35962;DHT22;22044;48.298;10.008;2022-09-20T08:20:14;8.90;99.90
35962;DHT22;22044;48.298;10.008;2022-09-20T08:22:42;8.90;99.90
35962;DHT22;22044;48.298;10.008;2022-09-20T08:25:10;8.90;99.90
35962;DHT22;22044;48.298;10.008;2022-09-20T08:27:36;8.90;99.90
35962;DHT22;22044;48.298;10.008;2022-09-20T08:30:04;9.00;99.90
35962;DHT22;22044;48.298;10.008;2022-09-20T08:32:32;9.20;99.90
35962;DHT22;22044;48.298;10.008;2022-09-20T08:34:59;9.20;99.90
35962;DHT22;22044;48.298;10.008;2022-09-20T08:37:26;9.30;99.90
35962;DHT22;22044;48.298;10.008;2022-09-20T08:39:55;9.40;99.90
35962;DHT22;22044;48.298;10.008;2022-09-20T08:42:27;9.50;99.90
35962;DHT22;22044;48.298;10.008;2022-09-20T08:44:56;9.70;99.90
35962;DHT22;22044;48.298;10.008;2022-09-20T08:47:26;9.90;99.90
35962;DHT22;22044;48.298;10.008;2022-09-20T08:49:54;10.00;99.90
35962;DHT22;22044;48.298;10.008;2022-09-20T08:52:27;10.10;99.90
35962;DHT22;22044;48.298;10.008;2022-09-20T08:54:59;10.20;99.90
35962;DHT22;22044;48.298;10.008;2022-09-20T08:57:30;10.40;99.90
35962;DHT22;22044;48.298;10.008;2022-09-20T08:59:58;10.50;99.90
35962;DHT22;22044;48.298;10.008;2022-09-20T09:02:29;10.50;99.90
35962;DHT22;22044;48.298;10.008;2022-09-20T09:04:57;10.60;99.90
35962;DHT22;22044;48.298;10.008;2022-09-20T09:07:25;10.70;99.90
35962;DHT22;22044;48.298;10.008;2022-09-20T09:09:56;10.70;99.90
35962;DHT22;22044;48.298;10.008;2022-09-20T09:12:27;10.90;99.90
35962;DHT22;22044;48.298;10.008;2022-09-20T09:14:58;11.00;99.90
35962;DHT22;22044;48.298;10.008;2022-09-20T09:17:27;11.20;99.90
35962;DHT22;22044;48.298;10.008;2022-09-20T09:19:55;11.30;99.90
35962;DHT22;22044;48.298;10.008;2022-09-20T09:22:27;11.30;99.90
35962;DHT22;22044;48.298;10.008;2022-09-20T09:25:20;11.20;99.90
35962;DHT22;22044;48.298;10.008;2022-09-20T09:30:36;11.30;99.90
35962;DHT22;22044;48.298;10.008;2022-09-20T09:33:24;11.50;99.90
35962;DHT22;22044;48.298;10.008;2022-09-20T09:36:04;11.50;99.90
35962;DHT22;22044;48.298;10.008;2022-09-20T09:38:33;11.60;99.90
35962;DHT22;22044;48.298;10.008;2022-09-20T09:41:04;11.40;99.90
35962;DHT22;22044;48.298;10.008;2022-09-20T09:43:35;11.40;99.90
35962;DHT22;22044;48.298;10.008;2022-09-20T09:46:17;11.40;99.90
35962;DHT22;22044;48.298;10.008;2022-09-20T09:48:46;11.50;99.90
35962;DHT22;22044;48.298;10.008;2022-09-20T09:51:16;11.60;99.90
35962;DHT22;22044;48.298;10.008;2022-09-20T09:53:45;11.80;99.90
35962;DHT22;22044;48.298;10.008;2022-09-20T10:02:18;12.20;99.90
35962;DHT22;22044;48.298;10.008;2022-09-20T10:04:53;12.30;99.90
35962;DHT22;22044;48.298;10.008;2022-09-20T10:07:28;12.30;99.90
35962;DHT22;22044;48.298;10.008;2022-09-20T10:10:07;12.40;99.90
35962;DHT22;22044;48.298;10.008;2022-09-20T10:12:54;12.40;99.90
35962;DHT22;22044;48.298;10.008;2022-09-20T10:15:31;12.50;99.90
35962;DHT22;22044;48.298;10.008;2022-09-20T10:21:05;12.70;99.90
35962;DHT22;22044;48.298;10.008;2022-09-20T10:24:07;12.50;99.90
35962;DHT22;22044;48.298;10.008;2022-09-20T10:26:52;12.70;99.90
35962;DHT22;22044;48.298;10.008;2022-09-20T10:29:35;12.70;99.90
35962;DHT22;22044;48.298;10.008;2022-09-20T10:32:16;12.90;99.90
35962;DHT22;22044;48.298;10.008;2022-09-20T10:35:12;12.80;99.90
35962;DHT22;22044;48.298;10.008;2022-09-20T10:37:50;12.80;99.90
35962;DHT22;22044;48.298;10.008;2022-09-20T10:40:26;12.50;99.90
35962;DHT22;22044;48.298;10.008;2022-09-20T10:43:36;12.20;99.90
35962;DHT22;22044;48.298;10.008;2022-09-20T10:46:15;12.20;99.90
35962;DHT22;22044;48.298;10.008;2022-09-20T10:48:52;12.20;99.90
35962;DHT22;22044;48.298;10.008;2022-09-20T10:51:28;12.10;99.90
35962;DHT22;22044;48.298;10.008;2022-09-20T10:54:07;12.10;99.90
35962;DHT22;22044;48.298;10.008;2022-09-20T10:56:39;12.00;99.90
35962;DHT22;22044;48.298;10.008;2022-09-20T10:59:33;12.20;99.90
35962;DHT22;22044;48.298;10.008;2022-09-20T11:02:16;12.20;99.90
35962;DHT22;22044;48.298;10.008;2022-09-20T11:04:59;12.30;99.90
35962;DHT22;22044;48.298;10.008;2022-09-20T11:07:40;12.40;99.90
35962;DHT22;22044;48.298;10.008;2022-09-20T11:10:17;12.30;99.90
35962;DHT22;22044;48.298;10.008;2022-09-20T11:12:50;12.30;99.90
35962;DHT22;22044;48.298;10.008;2022-09-20T11:15:22;12.10;99.90
35962;DHT22;22044;48.298;10.008;2022-09-20T11:17:58;12.00;99.90
35962;DHT22;22044;48.298;10.008;2022-09-20T11:20:29;12.00;99.90
35962;DHT22;22044;48.298;10.008;2022-09-20T11:23:02;12.10;99.90
35962;DHT22;22044;48.298;10.008;2022-09-20T11:25:33;12.20;99.90
35962;DHT22;22044;48.298;10.008;2022-09-20T11:28:09;12.30;99.90
35962;DHT22;22044;48.298;10.008;2022-09-20T11:30:40;12.30;99.90
35962;DHT22;22044;48.298;10.008;2022-09-20T11:33:16;12.30;99.90
35962;DHT22;22044;48.298;10.008;2022-09-20T11:35:47;12.40;99.90
35962;DHT22;22044;48.298;10.008;2022-09-20T11:38:18;12.40;99.90
35962;DHT22;22044;48.298;10.008;2022-09-20T11:40:52;12.40;99.90
35962;DHT22;22044;48.298;10.008;2022-09-20T11:43:21;12.50;99.90
35962;DHT22;22044;48.298;10.008;2022-09-20T11:45:54;12.50;99.90
35962;DHT22;22044;48.298;10.008;2022-09-20T11:48:27;12.50;99.90
35962;DHT22;22044;48.298;10.008;2022-09-20T11:51:20;12.40;99.90
35962;DHT22;22044;48.298;10.008;2022-09-20T11:56:37;12.50;99.90
35962;DHT22;22044;48.298;10.008;2022-09-20T11:59:21;12.40;99.90
35962;DHT22;22044;48.298;10.008;2022-09-20T12:01:54;12.40;99.90
35962;DHT22;22044;48.298;10.008;2022-09-20T12:04:25;12.40;99.90
35962;DHT22;22044;48.298;10.008;2022-09-20T12:07:00;12.30;99.90
35962;DHT22;22044;48.298;10.008;2022-09-20T12:09:30;12.40;99.90
35962;DHT22;22044;48.298;10.008;2022-09-20T12:12:07;12.50;99.90
35962;DHT22;22044;48.298;10.008;2022-09-20T12:14:39;12.60;99.90
35962;DHT22;22044;48.298;10.008;2022-09-20T12:20:59;12.60;99.90
35962;DHT22;22044;48.298;10.008;2022-09-20T12:26:47;12.40;99.90
35962;DHT22;22044;48.298;10.008;2022-09-20T12:29:50;12.40;99.90
35962;DHT22;22044;48.298;10.008;2022-09-20T12:32:33;12.40;99.90
35962;DHT22;22044;48.298;10.008;2022-09-20T12:35:00;12.40;99.90
35962;DHT22;22044;48.298;10.008;2022-09-20T12:37:28;12.40;99.90
35962;DHT22;22044;48.298;10.008;2022-09-20T12:39:56;12.50;99.90
35962;DHT22;22044;48.298;10.008;2022-09-20T12:42:27;12.50;99.90
35962;DHT22;22044;48.298;10.008;2022-09-20T12:44:59;12.40;99.90
35962;DHT22;22044;48.298;10.008;2022-09-20T12:47:28;12.50;99.90
35962;DHT22;22044;48.298;10.008;2022-09-20T12:49:57;12.40;99.90
35962;DHT22;22044;48.298;10.008;2022-09-20T12:52:54;12.40;99.90
35962;DHT22;22044;48.298;10.008;2022-09-20T12:55:42;12.50;99.90
35962;DHT22;22044;48.298;10.008;2022-09-20T12:58:35;12.60;99.90
35962;DHT22;22044;48.298;10.008;2022-09-20T13:01:31;12.70;99.90
35962;DHT22;22044;48.298;10.008;2022-09-20T13:07:35;12.80;99.90
35962;DHT22;22044;48.298;10.008;2022-09-20T13:10:15;13.00;99.90
35962;DHT22;22044;48.298;10.008;2022-09-20T13:12:44;13.00;99.90
35962;DHT22;22044;48.298;10.008;2022-09-20T13:15:16;13.10;99.90
35962;DHT22;22044;48.298;10.008;2022-09-20T13:17:45;13.10;99.90
35962;DHT22;22044;48.298;10.008;2022-09-20T13:20:19;13.20;99.90
35962;DHT22;22044;48.298;10.008;2022-09-20T13:22:47;13.30;99.90
35962;DHT22;22044;48.298;10.008;2022-09-20T13:25:19;13.40;99.90
35962;DHT22;22044;48.298;10.008;2022-09-20T13:27:50;13.60;99.90
35962;DHT22;22044;48.298;10.008;2022-09-20T13:30:21;13.70;99.90
35962;DHT22;22044;48.298;10.008;2022-09-20T13:32:49;13.70;99.90
35962;DHT22;22044;48.298;10.008;2022-09-20T13:35:18;13.80;99.90
35962;DHT22;22044;48.298;10.008;2022-09-20T13:37:50;13.80;99.90
35962;DHT22;22044;48.298;10.008;2022-09-20T13:40:22;13.60;99.90
35962;DHT22;22044;48.298;10.008;2022-09-20T13:42:51;13.50;99.90
35962;DHT22;22044;48.298;10.008;2022-09-20T13:45:20;13.50;99.90
35962;DHT22;22044;48.298;10.008;2022-09-20T13:47:49;13.60;99.90
35962;DHT22;22044;48.298;10.008;2022-09-20T13:50:21;13.60;99.90
35962;DHT22;22044;48.298;10.008;2022-09-20T13:52:51;13.60;99.90
35962;DHT22;22044;48.298;10.008;2022-09-20T13:55:27;13.70;99.90
35962;DHT22;22044;48.298;10.008;2022-09-20T13:57:58;13.70;99.90
35962;DHT22;22044;48.298;10.008;2022-09-20T14:00:26;13.60;99.90
35962;DHT22;22044;48.298;10.008;2022-09-20T14:02:54;13.50;99.90
35962;DHT22;22044;48.298;10.008;2022-09-20T14:05:24;13.50;99.90
35962;DHT22;22044;48.298;10.008;2022-09-20T14:07:52;13.70;99.90
35962;DHT22;22044;48.298;10.008;2022-09-20T14:10:31;13.70;99.90
35962;DHT22;22044;48.298;10.008;2022-09-20T14:13:00;13.70;99.90
35962;DHT22;22044;48.298;10.008;2022-09-20T14:15:33;13.90;99.90
35962;DHT22;22044;48.298;10.008;2022-09-20T14:18:02;13.90;99.90
35962;DHT22;22044;48.298;10.008;2022-09-20T14:20:32;14.00;99.90
35962;DHT22;22044;48.298;10.008;2022-09-20T14:22:59;14.10;99.90
35962;DHT22;22044;48.298;10.008;2022-09-20T14:25:28;14.00;99.90
35962;DHT22;22044;48.298;10.008;2022-09-20T14:28:12;14.20;99.90
35962;DHT22;22044;48.298;10.008;2022-09-20T14:30:43;14.50;99.90
35962;DHT22;22044;48.298;10.008;2022-09-20T14:33:15;14.50;99.90
35962;DHT22;22044;48.298;10.008;2022-09-20T14:35:47;14.50;99.90
35962;DHT22;22044;48.298;10.008;2022-09-20T14:38:16;14.70;99.90
35962;DHT22;22044;48.298;10.008;2022-09-20T14:40:46;14.60;99.90
35962;DHT22;22044;48.298;10.008;2022-09-20T14:43:25;14.60;99.90
35962;DHT22;22044;48.298;10.008;2022-09-20T14:45:58;14.60;99.90
35962;DHT22;22044;48.298;10.008;2022-09-20T14:48:35;14.70;99.90
35962;DHT22;22044;48.298;10.008;2022-09-20T14:51:18;14.70;99.90
35962;DHT22;22044;48.298;10.008;2022-09-20T14:53:48;14.60;99.90
35962;DHT22;22044;48.298;10.008;2022-09-20T14:56:26;14.50;99.90
35962;DHT22;22044;48.298;10.008;2022-09-20T14:59:23;14.50;99.90
35962;DHT22;22044;48.298;10.008;2022-09-20T15:02:09;14.60;99.90
35962;DHT22;22044;48.298;10.008;2022-09-20T15:04:38;14.60;99.90
35962;DHT22;22044;48.298;10.008;2022-09-20T15:07:08;14.60;99.90
35962;DHT22;22044;48.298;10.008;2022-09-20T15:09:36;14.60;99.90
35962;DHT22;22044;48.298;10.008;2022-09-20T15:12:06;14.70;99.90
35962;DHT22;22044;48.298;10.008;2022-09-20T15:14:38;14.90;99.90
35962;DHT22;22044;48.298;10.008;2022-09-20T15:17:08;14.80;99.90
35962;DHT22;22044;48.298;10.008;2022-09-20T15:19:35;14.70;99.90
35962;DHT22;22044;48.298;10.008;2022-09-20T15:22:03;14.90;99.90
35962;DHT22;22044;48.298;10.008;2022-09-20T15:24:30;15.00;99.90
35962;DHT22;22044;48.298;10.008;2022-09-20T15:26:57;15.20;99.90
35962;DHT22;22044;48.298;10.008;2022-09-20T15:29:25;15.30;99.90
35962;DHT22;22044;48.298;10.008;2022-09-20T15:31:53;15.50;99.90
35962;DHT22;22044;48.298;10.008;2022-09-20T15:34:20;15.30;99.90
35962;DHT22;22044;48.298;10.008;2022-09-20T15:36:47;15.30;99.90
35962;DHT22;22044;48.298;10.008;2022-09-20T15:39:15;15.10;99.90
35962;DHT22;22044;48.298;10.008;2022-09-20T15:41:42;15.20;99.90
35962;DHT22;22044;48.298;10.008;2022-09-20T15:44:14;14.90;99.90
35962;DHT22;22044;48.298;10.008;2022-09-20T15:46:43;14.80;99.90
35962;DHT22;22044;48.298;10.008;2022-09-20T15:49:11;14.80;99.90
35962;DHT22;22044;48.298;10.008;2022-09-20T15:51:38;14.80;99.90
35962;DHT22;22044;48.298;10.008;2022-09-20T15:54:06;14.70;99.90
35962;DHT22;22044;48.298;10.008;2022-09-20T15:56:35;14.60;99.90
35962;DHT22;22044;48.298;10.008;2022-09-20T15:59:07;14.70;99.90
35962;DHT22;22044;48.298;10.008;2022-09-20T16:01:37;14.60;99.90
35962;DHT22;22044;48.298;10.008;2022-09-20T16:04:07;14.50;99.90
35962;DHT22;22044;48.298;10.008;2022-09-20T16:06:35;14.40;99.90
35962;DHT22;22044;48.298;10.008;2022-09-20T16:09:02;14.40;99.90
35962;DHT22;22044;48.298;10.008;2022-09-20T16:11:30;14.30;99.90
35962;DHT22;22044;48.298;10.008;2022-09-20T16:13:59;14.30;99.90
35962;DHT22;22044;48.298;10.008;2022-09-20T16:16:28;14.30;99.90
35962;DHT22;22044;48.298;10.008;2022-09-20T16:18:56;14.30;99.90
35962;DHT22;22044;48.298;10.008;2022-09-20T16:21:43;14.40;99.90
35962;DHT22;22044;48.298;10.008;2022-09-20T16:24:13;14.30;99.90
35962;DHT22;22044;48.298;10.008;2022-09-20T16:26:40;14.40;99.90
35962;DHT22;22044;48.298;10.008;2022-09-20T16:29:08;14.30;99.90
35962;DHT22;22044;48.298;10.008;2022-09-20T16:31:38;14.30;99.90
35962;DHT22;22044;48.298;10.008;2022-09-20T16:34:10;14.30;99.90
35962;DHT22;22044;48.298;10.008;2022-09-20T16:36:38;14.20;99.90
35962;DHT22;22044;48.298;10.008;2022-09-20T16:39:09;14.10;99.90
35962;DHT22;22044;48.298;10.008;2022-09-20T16:41:36;13.90;99.90
35962;DHT22;22044;48.298;10.008;2022-09-20T16:44:04;13.90;99.90
35962;DHT22;22044;48.298;10.008;2022-09-20T16:46:32;13.80;99.90
35962;DHT22;22044;48.298;10.008;2022-09-20T16:49:03;13.60;99.90
35962;DHT22;22044;48.298;10.008;2022-09-20T16:51:32;13.60;99.90
35962;DHT22;22044;48.298;10.008;2022-09-20T16:54:03;13.50;99.90
35962;DHT22;22044;48.298;10.008;2022-09-20T16:56:33;13.40;99.90